sensor_id;sensor_type;location;lat;lon;timestamp;P1;durP1;ratioP1;P2;durP2;ratioP2
50517;SDS011;37075;44.084;2.962;2023-09-19T00:00:42;10.77;;;1.70;;
50517;SDS011;37075;44.084;2.962;2023-09-19T00:03:29;6.40;;;1.30;;
50517;SDS011;37075;44.084;2.962;2023-09-19T00:06:15;5.25;;;1.60;;
50517;SDS011;37075;44.084;2.962;2023-09-19T00:09:01;11.57;;;1.60;;
50517;SDS011;37075;44.084;2.962;2023-09-19T00:11:47;3.45;;;1.33;;
50517;SDS011;37075;44.084;2.962;2023-09-19T00:14:36;2.50;;;1.00;;
50517;SDS011;37075;44.084;2.962;2023-09-19T00:17:22;6.90;;;1.35;;
50517;SDS011;37075;44.084;2.962;2023-09-19T00:20:11;3.60;;;1.50;;
50517;SDS011;37075;44.084;2.962;2023-09-19T00:22:58;3.67;;;1.20;;
50517;SDS011;37075;44.084;2.962;2023-09-19T00:25:52;4.25;;;0.85;;
50517;SDS011;37075;44.084;2.962;2023-09-19T00:28:41;6.85;;;2.03;;
50517;SDS011;37075;44.084;2.962;2023-09-19T00:31:28;9.77;;;1.58;;
50517;SDS011;37075;44.084;2.962;2023-09-19T00:34:14;3.10;;;1.05;;
50517;SDS011;37075;44.084;2.962;2023-09-19T00:37:04;6.88;;;1.30;;
50517;SDS011;37075;44.084;2.962;2023-09-19T00:39:50;1.92;;;0.80;;
50517;SDS011;37075;44.084;2.962;2023-09-19T00:42:36;11.57;;;2.08;;
50517;SDS011;37075;44.084;2.962;2023-09-19T00:45:23;4.40;;;1.30;;
50517;SDS011;37075;44.084;2.962;2023-09-19T00:48:09;7.78;;;2.40;;
50517;SDS011;37075;44.084;2.962;2023-09-19T00:50:56;4.57;;;1.17;;
50517;SDS011;37075;44.084;2.962;2023-09-19T00:53:46;5.53;;;1.40;;
50517;SDS011;37075;44.084;2.962;2023-09-19T00:59:18;8.73;;;1.58;;
50517;SDS011;37075;44.084;2.962;2023-09-19T01:02:07;10.13;;;1.45;;
50517;SDS011;37075;44.084;2.962;2023-09-19T01:04:54;9.82;;;1.95;;
50517;SDS011;37075;44.084;2.962;2023-09-19T01:07:41;5.75;;;1.38;;
50517;SDS011;37075;44.084;2.962;2023-09-19T01:10:30;7.80;;;1.50;;
50517;SDS011;37075;44.084;2.962;2023-09-19T01:13:20;6.53;;;2.10;;
50517;SDS011;37075;44.084;2.962;2023-09-19T01:16:15;4.68;;;1.25;;
50517;SDS011;37075;44.084;2.962;2023-09-19T01:19:16;9.27;;;1.85;;
50517;SDS011;37075;44.084;2.962;2023-09-19T01:22:21;6.15;;;1.33;;
50517;SDS011;37075;44.084;2.962;2023-09-19T01:25:30;5.93;;;1.85;;
50517;SDS011;37075;44.084;2.962;2023-09-19T01:28:51;13.68;;;2.03;;
50517;SDS011;37075;44.084;2.962;2023-09-19T01:31:43;8.52;;;1.67;;
50517;SDS011;37075;44.084;2.962;2023-09-19T01:34:43;9.50;;;2.28;;
50517;SDS011;37075;44.084;2.962;2023-09-19T01:37:31;7.25;;;1.70;;
50517;SDS011;37075;44.084;2.962;2023-09-19T01:40:18;7.00;;;2.08;;
50517;SDS011;37075;44.084;2.962;2023-09-19T01:43:09;4.90;;;1.75;;
50517;SDS011;37075;44.084;2.962;2023-09-19T01:46:03;6.10;;;1.98;;
50517;SDS011;37075;44.084;2.962;2023-09-19T01:48:57;5.22;;;1.45;;
50517;SDS011;37075;44.084;2.962;2023-09-19T01:51:53;5.30;;;1.50;;
50517;SDS011;37075;44.084;2.962;2023-09-19T01:54:46;7.22;;;1.65;;
50517;SDS011;37075;44.084;2.962;2023-09-19T01:57:39;6.60;;;1.35;;
50517;SDS011;37075;44.084;2.962;2023-09-19T02:00:29;11.48;;;2.13;;
50517;SDS011;37075;44.084;2.962;2023-09-19T02:03:19;4.22;;;1.85;;
50517;SDS011;37075;44.084;2.962;2023-09-19T02:06:10;7.10;;;1.90;;
50517;SDS011;37075;44.084;2.962;2023-09-19T02:09:00;6.25;;;1.85;;
50517;SDS011;37075;44.084;2.962;2023-09-19T02:11:47;6.28;;;1.55;;
50517;SDS011;37075;44.084;2.962;2023-09-19T02:14:34;6.97;;;2.17;;
50517;SDS011;37075;44.084;2.962;2023-09-19T02:17:21;7.20;;;2.22;;
50517;SDS011;37075;44.084;2.962;2023-09-19T02:20:10;7.90;;;1.70;;
50517;SDS011;37075;44.084;2.962;2023-09-19T02:23:00;5.97;;;1.92;;
50517;SDS011;37075;44.084;2.962;2023-09-19T02:25:51;10.80;;;2.47;;
50517;SDS011;37075;44.084;2.962;2023-09-19T02:28:39;6.28;;;1.65;;
50517;SDS011;37075;44.084;2.962;2023-09-19T02:31:27;13.20;;;2.70;;
50517;SDS011;37075;44.084;2.962;2023-09-19T02:34:13;7.65;;;1.35;;
50517;SDS011;37075;44.084;2.962;2023-09-19T02:37:01;6.05;;;2.08;;
50517;SDS011;37075;44.084;2.962;2023-09-19T02:39:50;5.53;;;1.50;;
50517;SDS011;37075;44.084;2.962;2023-09-19T02:42:36;8.55;;;1.77;;
50517;SDS011;37075;44.084;2.962;2023-09-19T02:45:22;6.55;;;1.70;;
50517;SDS011;37075;44.084;2.962;2023-09-19T02:48:09;7.03;;;1.67;;
50517;SDS011;37075;44.084;2.962;2023-09-19T02:50:56;10.10;;;1.50;;
50517;SDS011;37075;44.084;2.962;2023-09-19T02:53:42;9.68;;;1.80;;
50517;SDS011;37075;44.084;2.962;2023-09-19T02:56:29;5.47;;;1.70;;
50517;SDS011;37075;44.084;2.962;2023-09-19T02:59:16;15.32;;;2.25;;
50517;SDS011;37075;44.084;2.962;2023-09-19T03:02:04;9.48;;;1.88;;
50517;SDS011;37075;44.084;2.962;2023-09-19T03:04:50;6.72;;;1.75;;
50517;SDS011;37075;44.084;2.962;2023-09-19T03:07:36;12.23;;;2.50;;
50517;SDS011;37075;44.084;2.962;2023-09-19T03:10:23;10.07;;;2.13;;
50517;SDS011;37075;44.084;2.962;2023-09-19T03:13:11;4.07;;;1.35;;
50517;SDS011;37075;44.084;2.962;2023-09-19T03:15:58;6.18;;;1.52;;
50517;SDS011;37075;44.084;2.962;2023-09-19T03:21:33;7.78;;;1.63;;
50517;SDS011;37075;44.084;2.962;2023-09-19T03:24:20;5.90;;;1.90;;
50517;SDS011;37075;44.084;2.962;2023-09-19T03:27:08;10.40;;;2.10;;
50517;SDS011;37075;44.084;2.962;2023-09-19T03:29:56;8.43;;;1.83;;
50517;SDS011;37075;44.084;2.962;2023-09-19T03:32:43;8.13;;;1.80;;
50517;SDS011;37075;44.084;2.962;2023-09-19T03:38:17;10.52;;;2.17;;
50517;SDS011;37075;44.084;2.962;2023-09-19T03:41:04;3.92;;;1.90;;
50517;SDS011;37075;44.084;2.962;2023-09-19T03:43:52;10.57;;;2.47;;
50517;SDS011;37075;44.084;2.962;2023-09-19T03:46:40;9.13;;;1.47;;
50517;SDS011;37075;44.084;2.962;2023-09-19T03:49:26;6.25;;;2.25;;
50517;SDS011;37075;44.084;2.962;2023-09-19T03:52:13;9.35;;;2.05;;
50517;SDS011;37075;44.084;2.962;2023-09-19T03:55:00;5.87;;;1.57;;
50517;SDS011;37075;44.084;2.962;2023-09-19T03:57:47;5.20;;;1.30;;
50517;SDS011;37075;44.084;2.962;2023-09-19T04:00:35;5.30;;;2.20;;
50517;SDS011;37075;44.084;2.962;2023-09-19T04:03:22;5.38;;;1.98;;
50517;SDS011;37075;44.084;2.962;2023-09-19T04:06:08;9.18;;;2.03;;
50517;SDS011;37075;44.084;2.962;2023-09-19T04:08:54;5.95;;;2.17;;
50517;SDS011;37075;44.084;2.962;2023-09-19T04:11:41;4.97;;;2.10;;
50517;SDS011;37075;44.084;2.962;2023-09-19T04:14:27;4.38;;;1.45;;
50517;SDS011;37075;44.084;2.962;2023-09-19T04:17:14;6.85;;;1.60;;
50517;SDS011;37075;44.084;2.962;2023-09-19T04:20:01;4.10;;;1.65;;
50517;SDS011;37075;44.084;2.962;2023-09-19T04:22:51;6.95;;;2.20;;
50517;SDS011;37075;44.084;2.962;2023-09-19T04:25:37;5.05;;;2.10;;
50517;SDS011;37075;44.084;2.962;2023-09-19T04:28:26;6.38;;;1.63;;
50517;SDS011;37075;44.084;2.962;2023-09-19T04:31:12;12.82;;;2.55;;
50517;SDS011;37075;44.084;2.962;2023-09-19T04:33:58;7.10;;;2.00;;
50517;SDS011;37075;44.084;2.962;2023-09-19T04:36:51;5.93;;;2.35;;
50517;SDS011;37075;44.084;2.962;2023-09-19T04:39:37;5.55;;;1.70;;
50517;SDS011;37075;44.084;2.962;2023-09-19T04:42:23;6.05;;;1.88;;
50517;SDS011;37075;44.084;2.962;2023-09-19T04:45:10;4.55;;;1.70;;
50517;SDS011;37075;44.084;2.962;2023-09-19T04:47:56;7.63;;;2.17;;
50517;SDS011;37075;44.084;2.962;2023-09-19T04:50:42;5.63;;;1.92;;
50517;SDS011;37075;44.084;2.962;2023-09-19T04:53:30;11.25;;;2.42;;
50517;SDS011;37075;44.084;2.962;2023-09-19T04:56:16;6.22;;;2.03;;
50517;SDS011;37075;44.084;2.962;2023-09-19T04:59:03;6.97;;;1.90;;
50517;SDS011;37075;44.084;2.962;2023-09-19T05:01:49;3.08;;;1.33;;
50517;SDS011;37075;44.084;2.962;2023-09-19T05:04:36;5.63;;;2.25;;
50517;SDS011;37075;44.084;2.962;2023-09-19T05:07:23;4.53;;;2.00;;
50517;SDS011;37075;44.084;2.962;2023-09-19T05:10:12;6.32;;;2.35;;
50517;SDS011;37075;44.084;2.962;2023-09-19T05:12:58;9.13;;;1.50;;
50517;SDS011;37075;44.084;2.962;2023-09-19T05:15:45;9.18;;;2.88;;
50517;SDS011;37075;44.084;2.962;2023-09-19T05:18:31;11.90;;;1.45;;
50517;SDS011;37075;44.084;2.962;2023-09-19T05:21:17;10.43;;;2.53;;
50517;SDS011;37075;44.084;2.962;2023-09-19T05:24:03;7.80;;;2.05;;
50517;SDS011;37075;44.084;2.962;2023-09-19T05:26:52;7.53;;;2.63;;
50517;SDS011;37075;44.084;2.962;2023-09-19T05:29:40;7.60;;;2.10;;
50517;SDS011;37075;44.084;2.962;2023-09-19T05:32:26;8.02;;;3.30;;
50517;SDS011;37075;44.084;2.962;2023-09-19T05:35:12;13.48;;;2.42;;
50517;SDS011;37075;44.084;2.962;2023-09-19T05:37:58;8.93;;;2.55;;
50517;SDS011;37075;44.084;2.962;2023-09-19T05:40:45;7.80;;;2.60;;
50517;SDS011;37075;44.084;2.962;2023-09-19T05:43:32;9.90;;;2.97;;
50517;SDS011;37075;44.084;2.962;2023-09-19T05:46:18;5.40;;;2.05;;
50517;SDS011;37075;44.084;2.962;2023-09-19T05:49:05;5.60;;;2.17;;
50517;SDS011;37075;44.084;2.962;2023-09-19T05:51:51;11.77;;;2.28;;
50517;SDS011;37075;44.084;2.962;2023-09-19T05:54:39;13.18;;;2.90;;
50517;SDS011;37075;44.084;2.962;2023-09-19T05:57:27;6.28;;;2.42;;
50517;SDS011;37075;44.084;2.962;2023-09-19T06:00:15;13.02;;;3.25;;
50517;SDS011;37075;44.084;2.962;2023-09-19T06:03:02;8.15;;;2.75;;
50517;SDS011;37075;44.084;2.962;2023-09-19T06:05:48;6.05;;;2.05;;
50517;SDS011;37075;44.084;2.962;2023-09-19T06:08:36;10.25;;;3.08;;
50517;SDS011;37075;44.084;2.962;2023-09-19T06:11:21;8.32;;;2.53;;
50517;SDS011;37075;44.084;2.962;2023-09-19T06:14:11;6.72;;;2.00;;
50517;SDS011;37075;44.084;2.962;2023-09-19T06:16:58;5.38;;;2.17;;
50517;SDS011;37075;44.084;2.962;2023-09-19T06:19:44;12.10;;;2.85;;
50517;SDS011;37075;44.084;2.962;2023-09-19T06:22:31;8.93;;;2.42;;
50517;SDS011;37075;44.084;2.962;2023-09-19T06:25:19;7.73;;;2.10;;
50517;SDS011;37075;44.084;2.962;2023-09-19T06:28:06;9.43;;;2.45;;
50517;SDS011;37075;44.084;2.962;2023-09-19T06:30:56;8.57;;;1.98;;
50517;SDS011;37075;44.084;2.962;2023-09-19T06:33:44;8.48;;;2.53;;
50517;SDS011;37075;44.084;2.962;2023-09-19T06:39:16;12.25;;;2.47;;
50517;SDS011;37075;44.084;2.962;2023-09-19T06:42:02;7.57;;;1.88;;
50517;SDS011;37075;44.084;2.962;2023-09-19T06:44:50;7.38;;;2.03;;
50517;SDS011;37075;44.084;2.962;2023-09-19T06:47:37;5.13;;;1.40;;
50517;SDS011;37075;44.084;2.962;2023-09-19T06:50:25;8.10;;;2.22;;
50517;SDS011;37075;44.084;2.962;2023-09-19T06:53:12;10.20;;;1.70;;
50517;SDS011;37075;44.084;2.962;2023-09-19T06:55:58;8.35;;;2.22;;
50517;SDS011;37075;44.084;2.962;2023-09-19T06:58:44;8.35;;;2.35;;
50517;SDS011;37075;44.084;2.962;2023-09-19T07:01:30;8.73;;;1.80;;
50517;SDS011;37075;44.084;2.962;2023-09-19T07:04:16;5.65;;;1.73;;
50517;SDS011;37075;44.084;2.962;2023-09-19T07:09:53;6.55;;;2.00;;
50517;SDS011;37075;44.084;2.962;2023-09-19T07:12:39;5.30;;;1.77;;
50517;SDS011;37075;44.084;2.962;2023-09-19T07:15:26;13.70;;;2.08;;
50517;SDS011;37075;44.084;2.962;2023-09-19T07:18:15;5.78;;;1.83;;
50517;SDS011;37075;44.084;2.962;2023-09-19T07:21:02;10.77;;;2.28;;
50517;SDS011;37075;44.084;2.962;2023-09-19T07:23:55;9.07;;;2.25;;
50517;SDS011;37075;44.084;2.962;2023-09-19T07:26:40;5.07;;;1.77;;
50517;SDS011;37075;44.084;2.962;2023-09-19T07:29:26;16.48;;;2.40;;
50517;SDS011;37075;44.084;2.962;2023-09-19T07:32:12;5.53;;;1.88;;
50517;SDS011;37075;44.084;2.962;2023-09-19T07:34:59;5.82;;;1.75;;
50517;SDS011;37075;44.084;2.962;2023-09-19T07:37:44;5.60;;;1.60;;
50517;SDS011;37075;44.084;2.962;2023-09-19T07:40:35;15.02;;;2.47;;
50517;SDS011;37075;44.084;2.962;2023-09-19T07:43:21;4.82;;;1.88;;
50517;SDS011;37075;44.084;2.962;2023-09-19T07:46:07;7.40;;;1.58;;
50517;SDS011;37075;44.084;2.962;2023-09-19T07:48:54;8.68;;;1.25;;
50517;SDS011;37075;44.084;2.962;2023-09-19T07:51:39;8.55;;;1.70;;
50517;SDS011;37075;44.084;2.962;2023-09-19T07:54:26;6.00;;;1.33;;
50517;SDS011;37075;44.084;2.962;2023-09-19T07:57:16;6.13;;;1.65;;
50517;SDS011;37075;44.084;2.962;2023-09-19T08:00:02;3.80;;;1.05;;
50517;SDS011;37075;44.084;2.962;2023-09-19T08:02:59;5.53;;;0.85;;
50517;SDS011;37075;44.084;2.962;2023-09-19T08:05:45;4.25;;;1.02;;
50517;SDS011;37075;44.084;2.962;2023-09-19T08:11:24;10.38;;;1.38;;
50517;SDS011;37075;44.084;2.962;2023-09-19T08:14:16;4.30;;;0.88;;
50517;SDS011;37075;44.084;2.962;2023-09-19T08:19:49;3.25;;;0.93;;
50517;SDS011;37075;44.084;2.962;2023-09-19T08:22:40;5.72;;;1.15;;
50517;SDS011;37075;44.084;2.962;2023-09-19T08:25:26;8.60;;;0.98;;
50517;SDS011;37075;44.084;2.962;2023-09-19T08:28:13;2.85;;;0.82;;
50517;SDS011;37075;44.084;2.962;2023-09-19T08:31:04;3.67;;;1.08;;
50517;SDS011;37075;44.084;2.962;2023-09-19T08:33:51;4.68;;;1.13;;
50517;SDS011;37075;44.084;2.962;2023-09-19T08:36:43;5.07;;;1.48;;
50517;SDS011;37075;44.084;2.962;2023-09-19T08:39:29;3.60;;;1.00;;
50517;SDS011;37075;44.084;2.962;2023-09-19T08:42:18;2.80;;;0.95;;
50517;SDS011;37075;44.084;2.962;2023-09-19T08:45:05;4.00;;;1.10;;
50517;SDS011;37075;44.084;2.962;2023-09-19T08:47:56;8.30;;;1.60;;
50517;SDS011;37075;44.084;2.962;2023-09-19T08:50:55;4.28;;;0.80;;
50517;SDS011;37075;44.084;2.962;2023-09-19T08:53:51;3.22;;;1.25;;
50517;SDS011;37075;44.084;2.962;2023-09-19T08:56:40;5.38;;;1.20;;
50517;SDS011;37075;44.084;2.962;2023-09-19T08:59:29;1.30;;;0.70;;
50517;SDS011;37075;44.084;2.962;2023-09-19T09:02:16;4.00;;;1.30;;
50517;SDS011;37075;44.084;2.962;2023-09-19T09:05:06;6.88;;;1.10;;
50517;SDS011;37075;44.084;2.962;2023-09-19T09:07:53;3.55;;;1.10;;
50517;SDS011;37075;44.084;2.962;2023-09-19T09:10:41;4.18;;;1.02;;
50517;SDS011;37075;44.084;2.962;2023-09-19T09:13:29;5.10;;;1.20;;
50517;SDS011;37075;44.084;2.962;2023-09-19T09:16:15;3.85;;;1.15;;
50517;SDS011;37075;44.084;2.962;2023-09-19T09:19:03;2.75;;;0.80;;
50517;SDS011;37075;44.084;2.962;2023-09-19T09:21:52;2.42;;;0.65;;
50517;SDS011;37075;44.084;2.962;2023-09-19T09:24:38;1.90;;;0.80;;
50517;SDS011;37075;44.084;2.962;2023-09-19T09:27:40;4.10;;;1.02;;
50517;SDS011;37075;44.084;2.962;2023-09-19T09:30:33;8.50;;;1.55;;
50517;SDS011;37075;44.084;2.962;2023-09-19T09:33:20;2.53;;;0.77;;
50517;SDS011;37075;44.084;2.962;2023-09-19T09:36:10;4.40;;;2.60;;
50517;SDS011;37075;44.084;2.962;2023-09-19T09:38:58;4.68;;;2.13;;
50517;SDS011;37075;44.084;2.962;2023-09-19T09:42:03;5.65;;;1.40;;
50517;SDS011;37075;44.084;2.962;2023-09-19T09:44:53;4.80;;;1.20;;
50517;SDS011;37075;44.084;2.962;2023-09-19T09:47:58;1.58;;;0.60;;
50517;SDS011;37075;44.084;2.962;2023-09-19T09:50:48;4.13;;;0.88;;
50517;SDS011;37075;44.084;2.962;2023-09-19T09:53:41;6.15;;;1.30;;
50517;SDS011;37075;44.084;2.962;2023-09-19T09:56:32;3.63;;;1.30;;
50517;SDS011;37075;44.084;2.962;2023-09-19T09:59:18;4.00;;;0.93;;
50517;SDS011;37075;44.084;2.962;2023-09-19T10:02:08;6.07;;;1.40;;
50517;SDS011;37075;44.084;2.962;2023-09-19T10:04:58;2.75;;;0.90;;
50517;SDS011;37075;44.084;2.962;2023-09-19T10:07:54;5.32;;;1.48;;
50517;SDS011;37075;44.084;2.962;2023-09-19T10:10:45;1.60;;;0.85;;
50517;SDS011;37075;44.084;2.962;2023-09-19T10:13:42;3.58;;;1.77;;
50517;SDS011;37075;44.084;2.962;2023-09-19T10:16:31;2.20;;;1.05;;
50517;SDS011;37075;44.084;2.962;2023-09-19T10:19:21;2.90;;;1.10;;
50517;SDS011;37075;44.084;2.962;2023-09-19T10:22:14;3.88;;;1.20;;
50517;SDS011;37075;44.084;2.962;2023-09-19T10:25:05;1.98;;;0.88;;
50517;SDS011;37075;44.084;2.962;2023-09-19T10:27:53;2.13;;;0.95;;
50517;SDS011;37075;44.084;2.962;2023-09-19T10:30:44;2.60;;;1.13;;
50517;SDS011;37075;44.084;2.962;2023-09-19T10:33:34;2.40;;;1.00;;
50517;SDS011;37075;44.084;2.962;2023-09-19T10:36:23;5.20;;;1.35;;
50517;SDS011;37075;44.084;2.962;2023-09-19T10:39:14;3.47;;;1.50;;
50517;SDS011;37075;44.084;2.962;2023-09-19T10:42:11;4.90;;;1.10;;
50517;SDS011;37075;44.084;2.962;2023-09-19T10:45:02;5.75;;;1.42;;
50517;SDS011;37075;44.084;2.962;2023-09-19T10:47:59;4.13;;;1.17;;
50517;SDS011;37075;44.084;2.962;2023-09-19T10:50:48;2.65;;;1.15;;
50517;SDS011;37075;44.084;2.962;2023-09-19T10:53:41;3.28;;;1.25;;
50517;SDS011;37075;44.084;2.962;2023-09-19T10:56:35;3.22;;;0.98;;
50517;SDS011;37075;44.084;2.962;2023-09-19T10:59:23;3.22;;;1.05;;
50517;SDS011;37075;44.084;2.962;2023-09-19T11:02:16;5.60;;;1.40;;
50517;SDS011;37075;44.084;2.962;2023-09-19T11:05:12;3.53;;;1.50;;
50517;SDS011;37075;44.084;2.962;2023-09-19T11:07:58;2.92;;;1.23;;
50517;SDS011;37075;44.084;2.962;2023-09-19T11:10:50;10.18;;;1.63;;
50517;SDS011;37075;44.084;2.962;2023-09-19T11:13:36;5.82;;;1.27;;
50517;SDS011;37075;44.084;2.962;2023-09-19T11:16:25;6.22;;;1.33;;
50517;SDS011;37075;44.084;2.962;2023-09-19T11:19:11;5.38;;;1.60;;
50517;SDS011;37075;44.084;2.962;2023-09-19T11:21:59;6.28;;;1.45;;
50517;SDS011;37075;44.084;2.962;2023-09-19T11:24:44;3.30;;;1.27;;
50517;SDS011;37075;44.084;2.962;2023-09-19T11:27:31;3.90;;;1.20;;
50517;SDS011;37075;44.084;2.962;2023-09-19T11:30:25;2.72;;;1.13;;
50517;SDS011;37075;44.084;2.962;2023-09-19T11:33:15;2.55;;;1.20;;
50517;SDS011;37075;44.084;2.962;2023-09-19T11:36:08;5.80;;;1.05;;
50517;SDS011;37075;44.084;2.962;2023-09-19T11:38:58;2.88;;;1.10;;
50517;SDS011;37075;44.084;2.962;2023-09-19T11:41:53;3.20;;;1.10;;
50517;SDS011;37075;44.084;2.962;2023-09-19T11:44:41;3.28;;;1.23;;
50517;SDS011;37075;44.084;2.962;2023-09-19T11:47:26;5.22;;;1.80;;
50517;SDS011;37075;44.084;2.962;2023-09-19T11:50:16;2.97;;;1.10;;
50517;SDS011;37075;44.084;2.962;2023-09-19T11:53:05;4.40;;;1.45;;
50517;SDS011;37075;44.084;2.962;2023-09-19T11:55:53;5.53;;;1.70;;
50517;SDS011;37075;44.084;2.962;2023-09-19T11:58:40;4.22;;;1.10;;
50517;SDS011;37075;44.084;2.962;2023-09-19T12:01:29;3.05;;;1.10;;
50517;SDS011;37075;44.084;2.962;2023-09-19T12:04:16;3.97;;;1.38;;
50517;SDS011;37075;44.084;2.962;2023-09-19T12:07:10;2.97;;;1.20;;
50517;SDS011;37075;44.084;2.962;2023-09-19T12:10:02;6.18;;;1.60;;
50517;SDS011;37075;44.084;2.962;2023-09-19T12:12:51;3.85;;;1.08;;
50517;SDS011;37075;44.084;2.962;2023-09-19T12:15:40;6.18;;;1.73;;
50517;SDS011;37075;44.084;2.962;2023-09-19T12:18:29;2.55;;;1.60;;
50517;SDS011;37075;44.084;2.962;2023-09-19T12:21:22;2.95;;;1.55;;
50517;SDS011;37075;44.084;2.962;2023-09-19T12:24:12;7.63;;;1.38;;
50517;SDS011;37075;44.084;2.962;2023-09-19T12:27:01;5.13;;;1.45;;
50517;SDS011;37075;44.084;2.962;2023-09-19T12:29:51;3.05;;;1.27;;
50517;SDS011;37075;44.084;2.962;2023-09-19T12:32:40;4.20;;;1.40;;
50517;SDS011;37075;44.084;2.962;2023-09-19T12:35:26;3.38;;;0.82;;
50517;SDS011;37075;44.084;2.962;2023-09-19T12:38:22;2.58;;;0.93;;
50517;SDS011;37075;44.084;2.962;2023-09-19T12:41:09;2.63;;;1.08;;
50517;SDS011;37075;44.084;2.962;2023-09-19T12:43:55;4.10;;;1.20;;
50517;SDS011;37075;44.084;2.962;2023-09-19T12:46:44;3.42;;;1.23;;
50517;SDS011;37075;44.084;2.962;2023-09-19T12:49:29;2.05;;;1.23;;
50517;SDS011;37075;44.084;2.962;2023-09-19T12:52:15;2.42;;;1.17;;
50517;SDS011;37075;44.084;2.962;2023-09-19T12:55:04;3.05;;;1.25;;
50517;SDS011;37075;44.084;2.962;2023-09-19T13:00:41;3.17;;;1.08;;
50517;SDS011;37075;44.084;2.962;2023-09-19T13:03:30;1.55;;;0.93;;
50517;SDS011;37075;44.084;2.962;2023-09-19T13:06:34;3.00;;;1.02;;
50517;SDS011;37075;44.084;2.962;2023-09-19T13:09:22;4.65;;;1.02;;
50517;SDS011;37075;44.084;2.962;2023-09-19T13:12:34;2.00;;;0.98;;
50517;SDS011;37075;44.084;2.962;2023-09-19T13:15:21;2.80;;;1.23;;
50517;SDS011;37075;44.084;2.962;2023-09-19T13:18:10;2.05;;;1.05;;
50517;SDS011;37075;44.084;2.962;2023-09-19T13:21:09;1.65;;;0.75;;
50517;SDS011;37075;44.084;2.962;2023-09-19T13:24:17;2.90;;;1.02;;
50517;SDS011;37075;44.084;2.962;2023-09-19T13:27:08;1.70;;;0.85;;
50517;SDS011;37075;44.084;2.962;2023-09-19T13:29:54;3.85;;;1.00;;
50517;SDS011;37075;44.084;2.962;2023-09-19T13:32:40;3.33;;;1.33;;
50517;SDS011;37075;44.084;2.962;2023-09-19T13:35:28;4.40;;;1.08;;
50517;SDS011;37075;44.084;2.962;2023-09-19T13:38:15;1.67;;;1.30;;
50517;SDS011;37075;44.084;2.962;2023-09-19T13:41:03;1.67;;;1.15;;
50517;SDS011;37075;44.084;2.962;2023-09-19T13:43:48;3.15;;;1.48;;
50517;SDS011;37075;44.084;2.962;2023-09-19T13:46:34;3.50;;;1.10;;
50517;SDS011;37075;44.084;2.962;2023-09-19T13:49:21;3.88;;;1.10;;
50517;SDS011;37075;44.084;2.962;2023-09-19T13:52:08;2.47;;;1.30;;
50517;SDS011;37075;44.084;2.962;2023-09-19T13:54:57;2.72;;;1.17;;
50517;SDS011;37075;44.084;2.962;2023-09-19T13:57:43;2.60;;;1.15;;
50517;SDS011;37075;44.084;2.962;2023-09-19T14:00:29;2.40;;;0.73;;
50517;SDS011;37075;44.084;2.962;2023-09-19T14:03:15;3.78;;;1.48;;
50517;SDS011;37075;44.084;2.962;2023-09-19T14:06:02;2.83;;;1.02;;
50517;SDS011;37075;44.084;2.962;2023-09-19T14:08:48;2.72;;;1.10;;
50517;SDS011;37075;44.084;2.962;2023-09-19T14:11:36;5.93;;;1.30;;
50517;SDS011;37075;44.084;2.962;2023-09-19T14:14:22;2.83;;;1.00;;
50517;SDS011;37075;44.084;2.962;2023-09-19T14:17:08;2.40;;;1.30;;
50517;SDS011;37075;44.084;2.962;2023-09-19T14:19:54;3.28;;;1.10;;
50517;SDS011;37075;44.084;2.962;2023-09-19T14:22:40;2.95;;;1.00;;
50517;SDS011;37075;44.084;2.962;2023-09-19T14:28:14;2.65;;;1.05;;
50517;SDS011;37075;44.084;2.962;2023-09-19T14:31:03;1.55;;;1.00;;
50517;SDS011;37075;44.084;2.962;2023-09-19T14:33:54;2.97;;;1.08;;
50517;SDS011;37075;44.084;2.962;2023-09-19T14:36:41;2.88;;;1.00;;
50517;SDS011;37075;44.084;2.962;2023-09-19T14:39:27;2.90;;;1.00;;
50517;SDS011;37075;44.084;2.962;2023-09-19T14:42:13;2.45;;;1.13;;
50517;SDS011;37075;44.084;2.962;2023-09-19T14:45:03;1.85;;;0.85;;
50517;SDS011;37075;44.084;2.962;2023-09-19T14:47:50;4.15;;;1.30;;
50517;SDS011;37075;44.084;2.962;2023-09-19T14:50:39;3.30;;;0.90;;
50517;SDS011;37075;44.084;2.962;2023-09-19T14:53:25;2.53;;;1.17;;
50517;SDS011;37075;44.084;2.962;2023-09-19T14:56:12;0.70;;;0.70;;
50517;SDS011;37075;44.084;2.962;2023-09-19T14:59:02;2.45;;;1.20;;
50517;SDS011;37075;44.084;2.962;2023-09-19T15:04:36;3.28;;;1.58;;
50517;SDS011;37075;44.084;2.962;2023-09-19T15:07:25;6.05;;;1.42;;
50517;SDS011;37075;44.084;2.962;2023-09-19T15:10:13;3.28;;;0.95;;
50517;SDS011;37075;44.084;2.962;2023-09-19T15:13:00;2.17;;;1.75;;
50517;SDS011;37075;44.084;2.962;2023-09-19T15:18:34;3.30;;;1.43;;
50517;SDS011;37075;44.084;2.962;2023-09-19T15:21:21;2.35;;;0.90;;
50517;SDS011;37075;44.084;2.962;2023-09-19T15:24:08;1.20;;;1.10;;
50517;SDS011;37075;44.084;2.962;2023-09-19T15:26:55;6.50;;;1.15;;
50517;SDS011;37075;44.084;2.962;2023-09-19T15:29:41;3.28;;;0.80;;
50517;SDS011;37075;44.084;2.962;2023-09-19T15:32:28;2.67;;;1.10;;
50517;SDS011;37075;44.084;2.962;2023-09-19T15:35:16;2.72;;;1.00;;
50517;SDS011;37075;44.084;2.962;2023-09-19T15:38:02;3.20;;;1.27;;
50517;SDS011;37075;44.084;2.962;2023-09-19T15:40:48;1.20;;;0.70;;
50517;SDS011;37075;44.084;2.962;2023-09-19T15:43:34;5.50;;;1.20;;
50517;SDS011;37075;44.084;2.962;2023-09-19T15:46:20;2.35;;;1.13;;
50517;SDS011;37075;44.084;2.962;2023-09-19T15:49:06;2.15;;;0.98;;
50517;SDS011;37075;44.084;2.962;2023-09-19T15:51:54;1.95;;;1.05;;
50517;SDS011;37075;44.084;2.962;2023-09-19T15:54:40;3.90;;;0.88;;
50517;SDS011;37075;44.084;2.962;2023-09-19T15:57:29;2.08;;;0.80;;
50517;SDS011;37075;44.084;2.962;2023-09-19T16:00:15;1.27;;;0.68;;
50517;SDS011;37075;44.084;2.962;2023-09-19T16:03:03;2.38;;;1.30;;
50517;SDS011;37075;44.084;2.962;2023-09-19T16:05:50;4.40;;;1.00;;
50517;SDS011;37075;44.084;2.962;2023-09-19T16:11:26;1.50;;;0.85;;
50517;SDS011;37075;44.084;2.962;2023-09-19T16:14:12;2.05;;;1.08;;
50517;SDS011;37075;44.084;2.962;2023-09-19T16:16:59;2.22;;;0.90;;
50517;SDS011;37075;44.084;2.962;2023-09-19T16:19:46;2.25;;;0.88;;
50517;SDS011;37075;44.084;2.962;2023-09-19T16:25:20;2.10;;;0.90;;
50517;SDS011;37075;44.084;2.962;2023-09-19T16:28:06;2.25;;;0.85;;
50517;SDS011;37075;44.084;2.962;2023-09-19T16:30:51;1.92;;;0.80;;
50517;SDS011;37075;44.084;2.962;2023-09-19T16:33:38;2.00;;;0.80;;
50517;SDS011;37075;44.084;2.962;2023-09-19T16:36:26;1.83;;;0.90;;
50517;SDS011;37075;44.084;2.962;2023-09-19T16:39:12;2.47;;;1.00;;
50517;SDS011;37075;44.084;2.962;2023-09-19T16:41:59;6.03;;;1.10;;
50517;SDS011;37075;44.084;2.962;2023-09-19T16:44:45;1.48;;;0.80;;
50517;SDS011;37075;44.084;2.962;2023-09-19T16:47:32;4.30;;;1.42;;
50517;SDS011;37075;44.084;2.962;2023-09-19T16:50:18;1.92;;;0.90;;
50517;SDS011;37075;44.084;2.962;2023-09-19T16:55:50;3.55;;;1.33;;
50517;SDS011;37075;44.084;2.962;2023-09-19T16:58:38;1.98;;;0.73;;
50517;SDS011;37075;44.084;2.962;2023-09-19T17:01:24;2.05;;;1.00;;
50517;SDS011;37075;44.084;2.962;2023-09-19T17:04:10;2.15;;;0.63;;
50517;SDS011;37075;44.084;2.962;2023-09-19T17:06:56;2.85;;;1.15;;
50517;SDS011;37075;44.084;2.962;2023-09-19T17:09:42;3.20;;;1.50;;
50517;SDS011;37075;44.084;2.962;2023-09-19T17:12:28;4.25;;;1.00;;
50517;SDS011;37075;44.084;2.962;2023-09-19T17:15:16;2.25;;;0.98;;
50517;SDS011;37075;44.084;2.962;2023-09-19T17:18:03;2.25;;;1.10;;
50517;SDS011;37075;44.084;2.962;2023-09-19T17:20:50;5.90;;;1.10;;
50517;SDS011;37075;44.084;2.962;2023-09-19T17:23:36;5.33;;;1.33;;
50517;SDS011;37075;44.084;2.962;2023-09-19T17:26:23;4.68;;;1.20;;
50517;SDS011;37075;44.084;2.962;2023-09-19T17:29:09;4.60;;;1.35;;
50517;SDS011;37075;44.084;2.962;2023-09-19T17:31:58;3.25;;;1.10;;